RYR90RC LGKR-LIME
Flight info
| Callsign | RYR90RC |
|---|---|
| Flight time | 1h 33m |
| Altitude | 38000 |
| Route | OLGAT DCT OKIMO DCT ENOXA DCT GARGA DCT ANC DCT BOA DCT OGPUD DCT BETMU DCT OSBUL |
| Aircraft | B738/M-SDE3FGILRWY/SB1 |
Departure
| Time | 2026-04-27 12:11 |
|---|---|
| Airport | Corfu Ioannis Kapodistrias International Airport (LGKR) |
Arrival
| Time | 2026-04-27 13:45 |
|---|---|
| Airport | Il Caravaggio International Airport (LIME) |
| Time | Latitude | Longitude | Altitude | Speed | Heading |
|---|---|---|---|---|---|
| 2026-04-27 11:39 | 39.60628 | 19.91361 | 17 ft | 0 kts | 80° |
| 2026-04-27 12:01 | 39.60627 | 19.91349 | 19 ft | 3 kts | 75° |
| 2026-04-27 12:02 | 39.60619 | 19.91326 | 19 ft | 3 kts | 51° |
| 2026-04-27 12:02 | 39.60605 | 19.91310 | 19 ft | 3 kts | 21° |
| 2026-04-27 12:02 | 39.60587 | 19.91306 | 18 ft | 3 kts | 351° |
| 2026-04-27 12:02 | 39.60571 | 19.91313 | 20 ft | 2 kts | 323° |
| 2026-04-27 12:03 | 39.60568 | 19.91315 | 20 ft | 1 kts | 320° |
| 2026-04-27 12:05 | 39.60569 | 19.91314 | 20 ft | 1 kts | 320° |
| 2026-04-27 12:06 | 39.60582 | 19.91297 | 18 ft | 3 kts | 311° |
| 2026-04-27 12:06 | 39.60595 | 19.91256 | 18 ft | 6 kts | 280° |
| 2026-04-27 12:06 | 39.60582 | 19.91201 | 18 ft | 7 kts | 230° |
| 2026-04-27 12:06 | 39.60535 | 19.91164 | 20 ft | 8 kts | 207° |
| 2026-04-27 12:07 | 39.60479 | 19.91142 | 18 ft | 9 kts | 184° |
| 2026-04-27 12:07 | 39.60403 | 19.91159 | 18 ft | 14 kts | 167° |
| 2026-04-27 12:07 | 39.60283 | 19.91190 | 20 ft | 20 kts | 168° |
| 2026-04-27 12:07 | 39.60126 | 19.91231 | 20 ft | 26 kts | 169° |
| 2026-04-27 12:08 | 39.59932 | 19.91281 | 21 ft | 31 kts | 168° |
| 2026-04-27 12:08 | 39.59707 | 19.91339 | 19 ft | 35 kts | 168° |
| 2026-04-27 12:08 | 39.59460 | 19.91404 | 17 ft | 36 kts | 168° |
| 2026-04-27 12:08 | 39.59255 | 19.91456 | 17 ft | 20 kts | 168° |
| 2026-04-27 12:09 | 39.59194 | 19.91453 | 16 ft | 6 kts | 217° |
| 2026-04-27 12:09 | 39.59158 | 19.91442 | 16 ft | 6 kts | 160° |
| 2026-04-27 12:09 | 39.59143 | 19.91489 | 16 ft | 6 kts | 76° |
| 2026-04-27 12:09 | 39.59170 | 19.91499 | 16 ft | 5 kts | 334° |
| 2026-04-27 12:10 | 39.59206 | 19.91469 | 17 ft | 7 kts | 348° |
| 2026-04-27 12:10 | 39.59247 | 19.91459 | 17 ft | 24 kts | 349° |
| 2026-04-27 12:10 | 39.59679 | 19.91348 | 18 ft | 101 kts | 349° |
| 2026-04-27 12:10 | 39.60590 | 19.91115 | 22 ft | 164 kts | 351° |
| 2026-04-27 12:11 | 39.61785 | 19.90807 | 563 ft | 178 kts | 349° |
| 2026-04-27 12:11 | 39.62975 | 19.90493 | 1600 ft | 169 kts | 348° |
| 2026-04-27 12:11 | 39.64114 | 19.90168 | 2377 ft | 175 kts | 340° |
| 2026-04-27 12:11 | 39.65064 | 19.89250 | 3002 ft | 174 kts | 306° |
| 2026-04-27 12:12 | 39.65547 | 19.87846 | 3613 ft | 174 kts | 275° |
| 2026-04-27 12:12 | 39.65556 | 19.86275 | 4239 ft | 177 kts | 264° |
| 2026-04-27 12:12 | 39.65524 | 19.84604 | 4736 ft | 195 kts | 264° |
| 2026-04-27 12:12 | 39.65487 | 19.82754 | 5169 ft | 214 kts | 264° |
| 2026-04-27 12:13 | 39.65505 | 19.80752 | 5503 ft | 228 kts | 278° |
| 2026-04-27 12:13 | 39.66220 | 19.78881 | 5833 ft | 245 kts | 306° |
| 2026-04-27 12:13 | 39.67387 | 19.77172 | 6279 ft | 260 kts | 312° |
| 2026-04-27 12:13 | 39.68709 | 19.75408 | 6673 ft | 280 kts | 313° |
| 2026-04-27 12:14 | 39.70088 | 19.73594 | 7511 ft | 283 kts | 313° |
| 2026-04-27 12:14 | 39.71470 | 19.71762 | 8352 ft | 285 kts | 313° |
| 2026-04-27 12:14 | 39.72854 | 19.69911 | 9195 ft | 287 kts | 313° |
| 2026-04-27 12:14 | 39.74249 | 19.68028 | 10010 ft | 291 kts | 313° |
| 2026-04-27 12:15 | 39.75664 | 19.66111 | 10595 ft | 302 kts | 313° |
| 2026-04-27 12:15 | 39.77175 | 19.64053 | 10775 ft | 326 kts | 313° |
| 2026-04-27 12:15 | 39.78795 | 19.61843 | 10967 ft | 348 kts | 313° |
| 2026-04-27 12:15 | 39.80495 | 19.59521 | 11422 ft | 359 kts | 313° |
| 2026-04-27 12:16 | 39.82223 | 19.57161 | 12146 ft | 361 kts | 313° |
| 2026-04-27 12:16 | 39.83958 | 19.54787 | 12938 ft | 363 kts | 313° |
| 2026-04-27 12:16 | 39.85703 | 19.52403 | 13738 ft | 365 kts | 313° |
| 2026-04-27 12:16 | 39.87474 | 19.50016 | 14450 ft | 368 kts | 313° |
| 2026-04-27 12:17 | 39.89273 | 19.47607 | 15076 ft | 374 kts | 313° |
| 2026-04-27 12:17 | 39.91100 | 19.45163 | 15737 ft | 378 kts | 313° |
| 2026-04-27 12:17 | 39.92937 | 19.42703 | 16470 ft | 380 kts | 313° |
| 2026-04-27 12:17 | 39.94795 | 19.40210 | 17044 ft | 387 kts | 313° |
| 2026-04-27 12:18 | 39.96679 | 19.37679 | 17664 ft | 391 kts | 313° |
| 2026-04-27 12:18 | 39.98576 | 19.35125 | 18362 ft | 393 kts | 312° |
| 2026-04-27 12:18 | 40.00481 | 19.32560 | 18949 ft | 396 kts | 313° |
| 2026-04-27 12:18 | 40.02383 | 19.29996 | 19465 ft | 400 kts | 313° |
| 2026-04-27 12:19 | 40.04325 | 19.27374 | 19984 ft | 403 kts | 313° |
| 2026-04-27 12:19 | 40.06283 | 19.24728 | 20518 ft | 406 kts | 313° |
| 2026-04-27 12:19 | 40.08253 | 19.22064 | 21045 ft | 410 kts | 313° |
| 2026-04-27 12:19 | 40.10241 | 19.19374 | 21559 ft | 413 kts | 313° |
| 2026-04-27 12:20 | 40.12244 | 19.16660 | 22061 ft | 416 kts | 313° |
| 2026-04-27 12:20 | 40.14259 | 19.13928 | 22535 ft | 419 kts | 313° |
| 2026-04-27 12:20 | 40.16287 | 19.11175 | 23021 ft | 422 kts | 313° |
| 2026-04-27 12:20 | 40.18330 | 19.08401 | 23494 ft | 425 kts | 313° |
| 2026-04-27 12:21 | 40.20389 | 19.05601 | 23926 ft | 427 kts | 313° |
| 2026-04-27 12:21 | 40.22429 | 19.02824 | 24321 ft | 429 kts | 313° |
| 2026-04-27 12:21 | 40.24506 | 18.99996 | 24737 ft | 431 kts | 313° |
| 2026-04-27 12:21 | 40.26588 | 18.97160 | 25132 ft | 433 kts | 313° |
| 2026-04-27 12:22 | 40.28682 | 18.94309 | 25519 ft | 435 kts | 313° |
| 2026-04-27 12:22 | 40.30789 | 18.91439 | 25899 ft | 437 kts | 313° |
| 2026-04-27 12:22 | 40.32902 | 18.88557 | 26281 ft | 439 kts | 313° |
| 2026-04-27 12:22 | 40.35012 | 18.85677 | 26852 ft | 435 kts | 313° |
| 2026-04-27 12:23 | 40.37100 | 18.82824 | 27441 ft | 432 kts | 313° |
| 2026-04-27 12:23 | 40.39173 | 18.79988 | 28044 ft | 429 kts | 313° |
| 2026-04-27 12:23 | 40.41233 | 18.77166 | 28554 ft | 427 kts | 313° |
| 2026-04-27 12:23 | 40.43283 | 18.74356 | 28990 ft | 426 kts | 313° |
| 2026-04-27 12:24 | 40.45331 | 18.71546 | 29349 ft | 426 kts | 313° |
| 2026-04-27 12:24 | 40.47379 | 18.68731 | 29729 ft | 426 kts | 313° |
| 2026-04-27 12:24 | 40.49400 | 18.65954 | 30161 ft | 424 kts | 313° |
| 2026-04-27 12:24 | 40.51434 | 18.63153 | 30547 ft | 423 kts | 313° |
| 2026-04-27 12:25 | 40.53464 | 18.60358 | 30890 ft | 422 kts | 313° |
| 2026-04-27 12:25 | 40.55489 | 18.57566 | 31203 ft | 422 kts | 312° |
| 2026-04-27 12:25 | 40.57513 | 18.54773 | 31547 ft | 421 kts | 312° |
| 2026-04-27 12:25 | 40.59528 | 18.51988 | 31915 ft | 419 kts | 312° |
| 2026-04-27 12:26 | 40.61538 | 18.49211 | 32272 ft | 418 kts | 312° |
| 2026-04-27 12:26 | 40.63552 | 18.46423 | 32451 ft | 422 kts | 312° |
| 2026-04-27 12:26 | 40.65580 | 18.43613 | 32570 ft | 426 kts | 312° |
| 2026-04-27 12:26 | 40.67625 | 18.40776 | 32771 ft | 428 kts | 312° |
| 2026-04-27 12:27 | 40.69647 | 18.37970 | 33039 ft | 428 kts | 312° |
| 2026-04-27 12:27 | 40.71691 | 18.35131 | 33411 ft | 426 kts | 312° |
| 2026-04-27 12:27 | 40.73724 | 18.32305 | 33787 ft | 424 kts | 312° |
| 2026-04-27 12:27 | 40.75751 | 18.29484 | 34093 ft | 423 kts | 312° |
| 2026-04-27 12:28 | 40.77775 | 18.26664 | 34348 ft | 423 kts | 312° |
| 2026-04-27 12:28 | 40.79770 | 18.23882 | 34608 ft | 422 kts | 312° |
| 2026-04-27 12:28 | 40.81787 | 18.21066 | 34871 ft | 421 kts | 312° |
| 2026-04-27 12:28 | 40.83800 | 18.18253 | 35125 ft | 421 kts | 312° |
| 2026-04-27 12:29 | 40.85811 | 18.15441 | 35384 ft | 420 kts | 311° |
| 2026-04-27 12:29 | 40.87817 | 18.12633 | 35643 ft | 420 kts | 311° |
| 2026-04-27 12:29 | 40.89817 | 18.09831 | 35908 ft | 419 kts | 311° |
| 2026-04-27 12:29 | 40.91811 | 18.07034 | 36163 ft | 418 kts | 311° |
| 2026-04-27 12:30 | 40.93806 | 18.04234 | 36393 ft | 418 kts | 311° |
| 2026-04-27 12:30 | 40.95791 | 18.01437 | 36647 ft | 417 kts | 311° |
| 2026-04-27 12:30 | 40.97774 | 17.98635 | 36875 ft | 417 kts | 311° |
| 2026-04-27 12:30 | 40.99753 | 17.95836 | 37114 ft | 416 kts | 311° |
| 2026-04-27 12:31 | 41.01728 | 17.93039 | 37356 ft | 415 kts | 311° |
| 2026-04-27 12:31 | 41.03701 | 17.90242 | 37578 ft | 415 kts | 311° |
| 2026-04-27 12:31 | 41.05007 | 17.88390 | 37725 ft | 414 kts | 311° |
| 2026-04-27 12:31 | 41.06974 | 17.85598 | 37929 ft | 414 kts | 311° |
| 2026-04-27 12:32 | 41.09580 | 17.81896 | 38123 ft | 416 kts | 311° |
| 2026-04-27 12:32 | 41.13531 | 17.76273 | 38115 ft | 415 kts | 311° |
| 2026-04-27 12:33 | 41.16816 | 17.71592 | 38112 ft | 412 kts | 311° |
| 2026-04-27 12:33 | 41.20685 | 17.66070 | 38122 ft | 409 kts | 311° |
| 2026-04-27 12:34 | 41.24565 | 17.60556 | 38121 ft | 407 kts | 311° |
| 2026-04-27 12:34 | 41.28428 | 17.55068 | 38121 ft | 406 kts | 311° |
| 2026-04-27 12:35 | 41.32290 | 17.49569 | 38120 ft | 407 kts | 311° |
| 2026-04-27 12:35 | 41.36154 | 17.44051 | 38127 ft | 408 kts | 311° |
| 2026-04-27 12:36 | 41.40035 | 17.38500 | 38131 ft | 410 kts | 311° |
| 2026-04-27 12:36 | 41.43932 | 17.32914 | 38128 ft | 412 kts | 311° |
| 2026-04-27 12:37 | 41.47843 | 17.27297 | 38127 ft | 414 kts | 311° |
| 2026-04-27 12:37 | 41.51770 | 17.21648 | 38118 ft | 416 kts | 311° |
| 2026-04-27 12:38 | 41.55704 | 17.15977 | 38120 ft | 417 kts | 311° |
| 2026-04-27 12:38 | 41.59644 | 17.10286 | 38117 ft | 417 kts | 311° |
| 2026-04-27 12:39 | 41.63576 | 17.04596 | 38121 ft | 416 kts | 311° |
| 2026-04-27 12:39 | 41.67473 | 16.98947 | 38119 ft | 415 kts | 311° |
| 2026-04-27 12:40 | 41.71381 | 16.93269 | 38119 ft | 414 kts | 311° |
| 2026-04-27 12:40 | 41.75277 | 16.87600 | 38117 ft | 413 kts | 311° |
| 2026-04-27 12:41 | 41.79155 | 16.81943 | 38118 ft | 412 kts | 311° |
| 2026-04-27 12:41 | 41.83020 | 16.76296 | 38122 ft | 410 kts | 311° |
| 2026-04-27 12:42 | 41.86876 | 16.70651 | 38121 ft | 410 kts | 311° |
| 2026-04-27 12:42 | 41.90723 | 16.65009 | 38121 ft | 409 kts | 310° |
| 2026-04-27 12:43 | 41.94546 | 16.59391 | 38122 ft | 409 kts | 310° |
| 2026-04-27 12:43 | 41.98386 | 16.53736 | 38122 ft | 410 kts | 310° |
| 2026-04-27 12:44 | 42.02230 | 16.48066 | 38125 ft | 410 kts | 310° |
| 2026-04-27 12:44 | 42.06078 | 16.42377 | 38127 ft | 411 kts | 310° |
| 2026-04-27 12:45 | 42.09934 | 16.36666 | 38123 ft | 412 kts | 310° |
| 2026-04-27 12:45 | 42.13795 | 16.30937 | 38124 ft | 413 kts | 310° |
| 2026-04-27 12:46 | 42.17628 | 16.25237 | 38121 ft | 413 kts | 310° |
| 2026-04-27 12:46 | 42.21489 | 16.19484 | 38123 ft | 414 kts | 310° |
| 2026-04-27 12:47 | 42.25355 | 16.13714 | 38120 ft | 414 kts | 310° |
| 2026-04-27 12:47 | 42.28942 | 16.07638 | 38131 ft | 413 kts | 304° |
| 2026-04-27 12:48 | 42.32222 | 16.01257 | 38116 ft | 414 kts | 303° |
| 2026-04-27 12:48 | 42.35493 | 15.94840 | 38120 ft | 414 kts | 303° |
| 2026-04-27 12:49 | 42.38776 | 15.88446 | 38122 ft | 414 kts | 304° |
| 2026-04-27 12:49 | 42.42067 | 15.82061 | 38114 ft | 414 kts | 304° |
| 2026-04-27 12:50 | 42.45359 | 15.75671 | 38118 ft | 414 kts | 304° |
| 2026-04-27 12:50 | 42.48627 | 15.69316 | 38117 ft | 414 kts | 304° |
| 2026-04-27 12:51 | 42.51915 | 15.62908 | 38119 ft | 414 kts | 304° |
| 2026-04-27 12:51 | 42.55200 | 15.56493 | 38121 ft | 414 kts | 304° |
| 2026-04-27 12:52 | 42.58482 | 15.50069 | 38115 ft | 414 kts | 304° |
| 2026-04-27 12:52 | 42.61765 | 15.43627 | 38118 ft | 414 kts | 304° |
| 2026-04-27 12:53 | 42.66682 | 15.33956 | 38119 ft | 415 kts | 304° |
| 2026-04-27 12:53 | 42.69937 | 15.27536 | 38116 ft | 416 kts | 304° |
| 2026-04-27 12:54 | 42.73218 | 15.21052 | 38119 ft | 416 kts | 304° |
| 2026-04-27 12:54 | 42.76497 | 15.14556 | 38118 ft | 417 kts | 304° |
| 2026-04-27 12:55 | 42.79777 | 15.08045 | 38119 ft | 417 kts | 304° |
| 2026-04-27 12:55 | 42.83062 | 15.01511 | 38117 ft | 418 kts | 304° |
| 2026-04-27 12:56 | 42.86344 | 14.94966 | 38118 ft | 418 kts | 304° |
| 2026-04-27 12:56 | 42.89626 | 14.88407 | 38122 ft | 419 kts | 304° |
| 2026-04-27 12:57 | 42.92914 | 14.81823 | 38114 ft | 419 kts | 304° |
| 2026-04-27 12:57 | 42.96196 | 14.75236 | 38118 ft | 420 kts | 304° |
| 2026-04-27 12:58 | 42.99454 | 14.68681 | 38117 ft | 420 kts | 304° |
| 2026-04-27 12:58 | 43.02754 | 14.62029 | 38116 ft | 420 kts | 304° |
| 2026-04-27 12:59 | 43.06010 | 14.55450 | 38117 ft | 421 kts | 304° |
| 2026-04-27 12:59 | 43.09284 | 14.48819 | 38113 ft | 421 kts | 304° |
| 2026-04-27 13:00 | 43.12557 | 14.42177 | 38112 ft | 421 kts | 304° |
| 2026-04-27 13:00 | 43.15828 | 14.35524 | 38114 ft | 421 kts | 304° |
| 2026-04-27 13:01 | 43.19094 | 14.28865 | 38113 ft | 421 kts | 304° |
| 2026-04-27 13:01 | 43.22357 | 14.22197 | 38120 ft | 421 kts | 304° |
| 2026-04-27 13:02 | 43.25613 | 14.15528 | 38117 ft | 421 kts | 304° |
| 2026-04-27 13:02 | 43.28868 | 14.08847 | 38115 ft | 421 kts | 304° |
| 2026-04-27 13:03 | 43.32101 | 14.02197 | 38113 ft | 421 kts | 304° |
| 2026-04-27 13:03 | 43.35350 | 13.95497 | 38113 ft | 421 kts | 304° |
| 2026-04-27 13:04 | 43.38591 | 13.88800 | 38119 ft | 421 kts | 304° |
| 2026-04-27 13:04 | 43.41831 | 13.82088 | 38117 ft | 421 kts | 304° |
| 2026-04-27 13:05 | 43.45067 | 13.75369 | 38110 ft | 421 kts | 304° |
| 2026-04-27 13:05 | 43.48292 | 13.68658 | 38112 ft | 421 kts | 304° |
| 2026-04-27 13:06 | 43.51525 | 13.61915 | 38107 ft | 421 kts | 304° |
| 2026-04-27 13:06 | 43.54751 | 13.55170 | 38108 ft | 422 kts | 304° |
| 2026-04-27 13:07 | 43.57979 | 13.48409 | 38104 ft | 422 kts | 304° |
| 2026-04-27 13:07 | 43.61145 | 13.41590 | 38109 ft | 422 kts | 303° |
| 2026-04-27 13:08 | 43.64240 | 13.34692 | 38103 ft | 423 kts | 302° |
| 2026-04-27 13:08 | 43.67314 | 13.27823 | 38106 ft | 423 kts | 303° |
| 2026-04-27 13:09 | 43.70412 | 13.20912 | 38099 ft | 423 kts | 303° |
| 2026-04-27 13:09 | 43.73475 | 13.14077 | 38109 ft | 423 kts | 303° |
| 2026-04-27 13:10 | 43.76567 | 13.07162 | 38110 ft | 422 kts | 303° |
| 2026-04-27 13:10 | 43.79656 | 13.00239 | 38105 ft | 422 kts | 302° |
| 2026-04-27 13:11 | 43.82743 | 12.93305 | 38112 ft | 422 kts | 302° |
| 2026-04-27 13:11 | 43.85815 | 12.86387 | 38106 ft | 421 kts | 302° |
| 2026-04-27 13:12 | 43.88884 | 12.79460 | 38106 ft | 421 kts | 302° |
| 2026-04-27 13:12 | 43.91926 | 12.72577 | 38104 ft | 421 kts | 302° |
| 2026-04-27 13:13 | 43.94979 | 12.65652 | 38101 ft | 421 kts | 302° |
| 2026-04-27 13:13 | 43.98034 | 12.58705 | 38103 ft | 420 kts | 302° |
| 2026-04-27 13:14 | 44.01078 | 12.51768 | 38108 ft | 420 kts | 302° |
| 2026-04-27 13:14 | 44.04117 | 12.44826 | 38103 ft | 420 kts | 302° |
| 2026-04-27 13:15 | 44.07130 | 12.37926 | 38128 ft | 420 kts | 302° |
| 2026-04-27 13:15 | 44.10162 | 12.30965 | 38128 ft | 420 kts | 302° |
| 2026-04-27 13:16 | 44.13185 | 12.24007 | 38135 ft | 420 kts | 302° |
| 2026-04-27 13:16 | 44.16208 | 12.17035 | 38105 ft | 420 kts | 302° |
| 2026-04-27 13:17 | 44.19225 | 12.10059 | 38101 ft | 420 kts | 302° |
| 2026-04-27 13:17 | 44.22228 | 12.03098 | 37709 ft | 426 kts | 302° |
| 2026-04-27 13:18 | 44.23765 | 11.99529 | 37389 ft | 420 kts | 302° |
| 2026-04-27 13:18 | 44.25243 | 11.96091 | 36953 ft | 416 kts | 302° |
| 2026-04-27 13:18 | 44.26719 | 11.92653 | 36539 ft | 411 kts | 302° |
| 2026-04-27 13:18 | 44.28176 | 11.89257 | 36278 ft | 404 kts | 302° |
| 2026-04-27 13:19 | 44.29610 | 11.85911 | 35988 ft | 397 kts | 302° |
| 2026-04-27 13:19 | 44.31018 | 11.82620 | 35618 ft | 394 kts | 302° |
| 2026-04-27 13:19 | 44.32415 | 11.79354 | 35280 ft | 390 kts | 302° |
| 2026-04-27 13:19 | 44.33798 | 11.76116 | 34899 ft | 387 kts | 302° |
| 2026-04-27 13:20 | 44.34700 | 11.73917 | 34679 ft | 384 kts | 299° |
| 2026-04-27 13:20 | 44.35889 | 11.70628 | 34237 ft | 385 kts | 297° |
| 2026-04-27 13:20 | 44.37015 | 11.67253 | 33833 ft | 382 kts | 296° |
| 2026-04-27 13:20 | 44.38113 | 11.63880 | 33406 ft | 381 kts | 296° |
| 2026-04-27 13:21 | 44.39208 | 11.60519 | 33011 ft | 378 kts | 296° |
| 2026-04-27 13:21 | 44.40301 | 11.57186 | 32629 ft | 376 kts | 296° |
| 2026-04-27 13:21 | 44.41394 | 11.53880 | 32250 ft | 373 kts | 296° |
| 2026-04-27 13:21 | 44.42466 | 11.50655 | 31887 ft | 371 kts | 296° |
| 2026-04-27 13:22 | 44.43557 | 11.47382 | 31519 ft | 369 kts | 296° |
| 2026-04-27 13:22 | 44.44640 | 11.44134 | 31162 ft | 367 kts | 296° |
| 2026-04-27 13:22 | 44.45720 | 11.40899 | 30791 ft | 366 kts | 296° |
| 2026-04-27 13:22 | 44.46796 | 11.37675 | 30431 ft | 364 kts | 296° |
| 2026-04-27 13:23 | 44.47865 | 11.34467 | 30061 ft | 363 kts | 296° |
| 2026-04-27 13:23 | 44.48928 | 11.31273 | 29644 ft | 361 kts | 296° |
| 2026-04-27 13:23 | 44.49985 | 11.28092 | 29253 ft | 359 kts | 296° |
| 2026-04-27 13:23 | 44.51033 | 11.24937 | 28884 ft | 356 kts | 296° |
| 2026-04-27 13:24 | 44.52074 | 11.21799 | 28495 ft | 353 kts | 296° |
| 2026-04-27 13:24 | 44.53093 | 11.18722 | 28135 ft | 351 kts | 296° |
| 2026-04-27 13:24 | 44.54119 | 11.15621 | 27761 ft | 349 kts | 296° |
| 2026-04-27 13:24 | 44.55137 | 11.12542 | 27395 ft | 347 kts | 296° |
| 2026-04-27 13:25 | 44.56150 | 11.09474 | 27046 ft | 346 kts | 296° |
| 2026-04-27 13:25 | 44.57155 | 11.06424 | 26690 ft | 344 kts | 295° |
| 2026-04-27 13:25 | 44.58157 | 11.03382 | 26335 ft | 343 kts | 295° |
| 2026-04-27 13:25 | 44.59153 | 11.00353 | 25977 ft | 341 kts | 295° |
| 2026-04-27 13:26 | 44.60146 | 10.97333 | 25625 ft | 341 kts | 295° |
| 2026-04-27 13:26 | 44.61135 | 10.94318 | 25281 ft | 340 kts | 295° |
| 2026-04-27 13:26 | 44.62123 | 10.91306 | 24931 ft | 339 kts | 295° |
| 2026-04-27 13:26 | 44.63163 | 10.88334 | 24495 ft | 340 kts | 302° |
| 2026-04-27 13:27 | 44.64641 | 10.85708 | 23953 ft | 346 kts | 314° |
| 2026-04-27 13:27 | 44.66469 | 10.83499 | 23543 ft | 346 kts | 322° |
| 2026-04-27 13:27 | 44.68399 | 10.81499 | 23206 ft | 343 kts | 323° |
| 2026-04-27 13:27 | 44.70325 | 10.79548 | 22868 ft | 340 kts | 323° |
| 2026-04-27 13:28 | 44.72241 | 10.77614 | 22493 ft | 338 kts | 323° |
| 2026-04-27 13:28 | 44.74147 | 10.75680 | 22059 ft | 338 kts | 323° |
| 2026-04-27 13:28 | 44.76094 | 10.73695 | 21081 ft | 354 kts | 323° |
| 2026-04-27 13:28 | 44.78121 | 10.71616 | 20250 ft | 366 kts | 323° |
| 2026-04-27 13:29 | 44.80205 | 10.69473 | 19439 ft | 375 kts | 323° |
| 2026-04-27 13:29 | 44.82316 | 10.67296 | 18868 ft | 376 kts | 323° |
| 2026-04-27 13:29 | 44.84419 | 10.65123 | 18342 ft | 375 kts | 323° |
| 2026-04-27 13:29 | 44.86518 | 10.62950 | 17742 ft | 373 kts | 323° |
| 2026-04-27 13:30 | 44.88606 | 10.60787 | 17221 ft | 371 kts | 323° |
| 2026-04-27 13:30 | 44.90646 | 10.58672 | 16789 ft | 366 kts | 323° |
| 2026-04-27 13:30 | 44.92690 | 10.56551 | 16347 ft | 363 kts | 323° |
| 2026-04-27 13:30 | 44.94710 | 10.54451 | 15920 ft | 359 kts | 323° |
| 2026-04-27 13:31 | 44.96710 | 10.52370 | 15523 ft | 355 kts | 323° |
| 2026-04-27 13:31 | 44.98683 | 10.50316 | 15154 ft | 350 kts | 323° |
| 2026-04-27 13:31 | 45.00636 | 10.48280 | 14790 ft | 346 kts | 323° |
| 2026-04-27 13:31 | 45.02566 | 10.46267 | 14431 ft | 342 kts | 323° |
| 2026-04-27 13:32 | 45.04473 | 10.44277 | 14072 ft | 338 kts | 323° |
| 2026-04-27 13:32 | 45.06357 | 10.42309 | 13696 ft | 335 kts | 323° |
| 2026-04-27 13:32 | 45.08222 | 10.40359 | 13300 ft | 331 kts | 323° |
| 2026-04-27 13:32 | 45.10069 | 10.38427 | 12860 ft | 330 kts | 323° |
| 2026-04-27 13:33 | 45.11916 | 10.36494 | 12367 ft | 330 kts | 323° |
| 2026-04-27 13:33 | 45.13758 | 10.34563 | 11889 ft | 330 kts | 323° |
| 2026-04-27 13:33 | 45.15599 | 10.32630 | 11419 ft | 330 kts | 323° |
| 2026-04-27 13:33 | 45.17437 | 10.30700 | 11014 ft | 327 kts | 323° |
| 2026-04-27 13:34 | 45.19258 | 10.28791 | 10638 ft | 324 kts | 323° |
| 2026-04-27 13:34 | 45.21039 | 10.26920 | 10287 ft | 321 kts | 323° |
| 2026-04-27 13:34 | 45.22823 | 10.25037 | 9977 ft | 317 kts | 323° |
| 2026-04-27 13:34 | 45.24584 | 10.23181 | 9622 ft | 314 kts | 323° |
| 2026-04-27 13:35 | 45.26326 | 10.21343 | 9283 ft | 310 kts | 323° |
| 2026-04-27 13:35 | 45.28054 | 10.19520 | 8950 ft | 307 kts | 323° |
| 2026-04-27 13:35 | 45.29761 | 10.17720 | 8608 ft | 304 kts | 323° |
| 2026-04-27 13:35 | 45.31452 | 10.15935 | 8317 ft | 300 kts | 323° |
| 2026-04-27 13:36 | 45.33129 | 10.14164 | 7935 ft | 300 kts | 323° |
| 2026-04-27 13:36 | 45.34803 | 10.12388 | 7574 ft | 300 kts | 323° |
| 2026-04-27 13:36 | 45.36476 | 10.10617 | 7194 ft | 299 kts | 323° |
| 2026-04-27 13:36 | 45.38140 | 10.08854 | 6841 ft | 298 kts | 323° |
| 2026-04-27 13:37 | 45.39804 | 10.07090 | 6565 ft | 296 kts | 323° |
| 2026-04-27 13:37 | 45.41436 | 10.05359 | 6307 ft | 288 kts | 322° |
| 2026-04-27 13:37 | 45.43018 | 10.03674 | 6095 ft | 279 kts | 322° |
| 2026-04-27 13:37 | 45.44544 | 10.02052 | 5993 ft | 270 kts | 322° |
| 2026-04-27 13:38 | 45.46023 | 10.00483 | 5986 ft | 259 kts | 322° |
| 2026-04-27 13:38 | 45.47423 | 9.98995 | 5985 ft | 242 kts | 322° |
| 2026-04-27 13:38 | 45.48711 | 9.97626 | 5964 ft | 230 kts | 322° |
| 2026-04-27 13:38 | 45.50064 | 9.96457 | 5941 ft | 228 kts | 343° |
| 2026-04-27 13:39 | 45.51611 | 9.96252 | 5872 ft | 220 kts | 358° |
| 2026-04-27 13:39 | 45.53128 | 9.96197 | 5616 ft | 216 kts | 358° |
| 2026-04-27 13:39 | 45.54635 | 9.96122 | 5245 ft | 218 kts | 356° |
| 2026-04-27 13:39 | 45.56146 | 9.96045 | 4918 ft | 215 kts | 357° |
| 2026-04-27 13:40 | 45.57641 | 9.96003 | 4581 ft | 212 kts | 357° |
| 2026-04-27 13:40 | 45.59063 | 9.95938 | 4430 ft | 200 kts | 357° |
| 2026-04-27 13:40 | 45.60454 | 9.95868 | 4115 ft | 200 kts | 357° |
| 2026-04-27 13:40 | 45.61777 | 9.95393 | 3819 ft | 197 kts | 324° |
| 2026-04-27 13:41 | 45.62513 | 9.93831 | 3543 ft | 190 kts | 281° |
| 2026-04-27 13:41 | 45.62802 | 9.92049 | 3455 ft | 183 kts | 284° |
| 2026-04-27 13:41 | 45.63161 | 9.90308 | 3276 ft | 185 kts | 284° |
| 2026-04-27 13:41 | 45.63504 | 9.88509 | 3041 ft | 191 kts | 284° |
| 2026-04-27 13:42 | 45.63843 | 9.86654 | 2795 ft | 193 kts | 283° |
| 2026-04-27 13:42 | 45.64172 | 9.84848 | 2582 ft | 182 kts | 284° |
| 2026-04-27 13:42 | 45.64492 | 9.83146 | 2342 ft | 170 kts | 285° |
| 2026-04-27 13:42 | 45.64786 | 9.81570 | 2101 ft | 157 kts | 283° |
| 2026-04-27 13:43 | 45.65049 | 9.80092 | 1898 ft | 150 kts | 283° |
| 2026-04-27 13:43 | 45.65314 | 9.78654 | 1699 ft | 150 kts | 284° |
| 2026-04-27 13:43 | 45.65579 | 9.77213 | 1490 ft | 150 kts | 285° |
| 2026-04-27 13:43 | 45.65844 | 9.75775 | 1308 ft | 150 kts | 285° |
| 2026-04-27 13:44 | 45.66110 | 9.74332 | 1085 ft | 149 kts | 286° |
| 2026-04-27 13:44 | 45.66371 | 9.72916 | 896 ft | 147 kts | 285° |
| 2026-04-27 13:44 | 45.66584 | 9.71762 | 788 ft | 142 kts | 284° |
| 2026-04-27 13:44 | 45.66801 | 9.70604 | 786 ft | 88 kts | 284° |
| 2026-04-27 13:45 | 45.66889 | 9.70121 | 786 ft | 21 kts | 278° |
| 2026-04-27 13:45 | 45.66873 | 9.69970 | 786 ft | 13 kts | 243° |
| 2026-04-27 13:45 | 45.66835 | 9.69875 | 786 ft | 11 kts | 238° |
| 2026-04-27 13:45 | 45.66799 | 9.69782 | 786 ft | 10 kts | 243° |
| 2026-04-27 13:46 | 45.66802 | 9.69681 | 786 ft | 10 kts | 284° |
| 2026-04-27 13:46 | 45.66820 | 9.69584 | 786 ft | 10 kts | 284° |
| 2026-04-27 13:46 | 45.66837 | 9.69493 | 786 ft | 8 kts | 284° |
| 2026-04-27 13:46 | 45.66846 | 9.69445 | 786 ft | 4 kts | 284° |
| 2026-04-27 13:47 | 45.66853 | 9.69407 | 786 ft | 4 kts | 284° |
| 2026-04-27 13:47 | 45.66860 | 9.69369 | 786 ft | 4 kts | 284° |
| 2026-04-27 13:47 | 45.66867 | 9.69333 | 786 ft | 4 kts | 285° |
| 2026-04-27 13:47 | 45.66866 | 9.69298 | 786 ft | 4 kts | 240° |
| 2026-04-27 13:48 | 45.66842 | 9.69283 | 786 ft | 4 kts | 192° |
| 2026-04-27 13:48 | 45.66816 | 9.69274 | 786 ft | 4 kts | 194° |
| 2026-04-27 13:48 | 45.66800 | 9.69268 | 786 ft | 0 kts | 195° |
| 2026-04-27 13:48 | 45.66799 | 9.69268 | 786 ft | 0 kts | 195° |